Time;durP1;ratioP1;P1;durP2;ratioP2;P2;SDS_P1;SDS_P2;PMS_P1;PMS_P2;Temp;Humidity;BMP_temperature;BMP_pressure;BME280_temperature;BME280_humidity;BME280_pressure;Samples;Min_cycle;Max_cycle;Signal;HPM_P1;HPM_P2
2023/01/29 00:00:35;;;;;;;10.85;6.05;;;2.80;99.90;;;;;;5093646;28;20043;-83
2023/01/29 00:03:01;;;;;;;14.60;5.72;;;2.80;99.90;;;;;;5093437;28;20043;-83
2023/01/29 00:05:28;;;;;;;12.10;6.22;;;2.80;99.90;;;;;;5109813;28;20036;-83
2023/01/29 00:07:56;;;;;;;11.90;5.63;;;2.80;99.90;;;;;;5126683;28;20445;-83
2023/01/29 00:10:24;;;;;;;11.13;6.00;;;2.80;99.90;;;;;;5110253;28;20047;-83
2023/01/29 00:12:51;;;;;;;11.32;6.18;;;2.80;99.90;;;;;;5109555;28;20547;-83
2023/01/29 00:15:19;;;;;;;13.68;5.70;;;2.90;99.90;;;;;;5092994;28;20114;-83
2023/01/29 00:17:45;;;;;;;12.18;5.70;;;3.30;99.90;;;;;;5109509;28;20056;-83
2023/01/29 00:20:12;;;;;;;9.45;5.47;;;2.90;99.90;;;;;;5093168;28;20480;-83
2023/01/29 00:22:39;;;;;;;10.90;6.30;;;3.00;99.90;;;;;;5126564;28;20499;-83
2023/01/29 00:25:06;;;;;;;11.95;6.15;;;3.00;99.90;;;;;;5109354;28;20541;-83
2023/01/29 00:27:33;;;;;;;11.20;6.25;;;3.00;99.90;;;;;;5109399;28;20039;-83
2023/01/29 00:30:11;;;;;;;12.88;6.45;;;3.00;99.90;;;;;;5109053;28;20042;-83
2023/01/29 00:32:42;;;;;;;12.02;6.20;;;3.00;99.90;;;;;;5109761;28;20051;-83
2023/01/29 00:35:09;;;;;;;11.23;6.07;;;3.30;99.90;;;;;;5126261;28;20040;-83
2023/01/29 00:37:36;;;;;;;12.00;6.20;;;3.10;99.90;;;;;;5109290;28;20949;-83
2023/01/29 00:40:04;;;;;;;13.00;6.20;;;3.10;99.90;;;;;;5109153;28;20126;-83
2023/01/29 00:45:15;;;;;;;12.82;6.65;;;3.80;99.90;;;;;;5111921;28;20040;-83
2023/01/29 00:47:42;;;;;;;16.30;6.55;;;3.10;99.90;;;;;;5109209;28;20389;-83
2023/01/29 00:50:11;;;;;;;11.23;6.90;;;3.10;99.90;;;;;;5109168;28;20047;-83
2023/01/29 00:52:39;;;;;;;15.45;6.72;;;3.20;99.90;;;;;;5109377;28;20416;-83
2023/01/29 00:55:07;;;;;;;13.23;6.53;;;3.50;99.90;;;;;;5125918;28;20514;-83
2023/01/29 00:57:37;;;;;;;16.08;7.25;;;3.20;99.90;;;;;;5109224;28;20059;-83
2023/01/29 01:00:07;;;;;;;14.00;7.15;;;3.20;99.90;;;;;;5109203;28;20071;-83
2023/01/29 01:05:19;;;;;;;14.95;7.50;;;3.30;99.90;;;;;;5111836;28;20447;-83
2023/01/29 01:07:51;;;;;;;16.20;7.63;;;3.20;99.90;;;;;;5125557;28;20071;-83
2023/01/29 01:10:23;;;;;;;13.20;7.68;;;3.20;99.90;;;;;;5126314;28;20052;-83
2023/01/29 01:12:54;;;;;;;17.80;7.63;;;3.20;99.90;;;;;;5109253;28;20044;-83
2023/01/29 01:15:23;;;;;;;16.02;7.63;;;3.20;99.90;;;;;;5109317;28;20123;-83
2023/01/29 01:17:59;;;;;;;15.40;8.18;;;3.20;99.90;;;;;;5108903;28;20043;-82
2023/01/29 01:20:27;;;;;;;;;;;3.20;99.90;;;;;;5109597;28;20044;-83
2023/01/29 01:22:54;;;;;;;16.77;7.93;;;3.20;99.90;;;;;;5125895;28;19923;-82
2023/01/29 01:25:22;;;;;;;16.02;8.27;;;3.50;99.90;;;;;;5108560;28;20496;-83
2023/01/29 01:27:52;;;;;;;14.80;9.10;;;3.30;99.90;;;;;;5108756;28;20042;-82
2023/01/29 01:30:19;;;;;;;16.58;9.10;;;3.30;99.90;;;;;;5109008;28;20098;-83
2023/01/29 01:32:46;;;;;;;16.25;8.52;;;3.30;99.90;;;;;;5108903;28;20067;-83
2023/01/29 01:35:13;;;;;;;19.00;9.35;;;3.30;99.90;;;;;;5125267;28;20075;-83
2023/01/29 01:37:41;;;;;;;21.35;8.82;;;3.30;99.90;;;;;;5109040;28;20048;-83
2023/01/29 01:40:16;;;;;;;17.65;9.40;;;3.30;99.90;;;;;;5125491;28;20036;-83
2023/01/29 01:42:46;;;;;;;20.40;9.57;;;3.30;99.90;;;;;;5109126;28;20485;-83
2023/01/29 01:45:29;;;;;;;18.33;9.13;;;3.30;99.90;;;;;;5125631;28;20032;-83
2023/01/29 01:48:15;;;;;;;16.17;9.05;;;3.30;99.90;;;;;;5142596;28;20036;-82
2023/01/29 01:50:47;;;;;;;18.52;9.93;;;3.30;99.90;;;;;;5108950;28;20047;-83
2023/01/29 01:53:21;;;;;;;19.75;9.85;;;3.30;99.90;;;;;;5125728;28;20139;-83
2023/01/29 01:55:54;;;;;;;17.08;9.07;;;3.30;99.90;;;;;;5112511;28;20131;-83
2023/01/29 01:58:26;;;;;;;18.80;10.13;;;3.30;99.90;;;;;;5146431;28;20051;-83
2023/01/29 02:00:54;;;;;;;21.27;11.13;;;3.30;99.90;;;;;;5129256;28;20480;-83
2023/01/29 02:09:37;;;;;;;17.33;9.90;;;3.30;99.90;;;;;;5114595;28;20091;-83
2023/01/29 02:12:13;;;;;;;19.92;9.90;;;3.30;99.90;;;;;;5112148;28;20135;-83
2023/01/29 02:14:43;;;;;;;22.80;10.93;;;3.30;99.90;;;;;;5112100;28;20132;-83
2023/01/29 02:17:15;;;;;;;20.33;10.82;;;3.30;99.90;;;;;;5128448;28;20071;-83
2023/01/29 02:20:23;;;;;;;19.35;10.85;;;3.30;99.90;;;;;;5128777;28;20082;-83
2023/01/29 02:23:26;;;;;;;20.95;10.98;;;3.30;99.90;;;;;;5128489;28;20525;-83
2023/01/29 02:26:19;;;;;;;19.35;10.90;;;3.30;99.90;;;;;;5108740;28;20131;-83
2023/01/29 02:28:51;;;;;;;23.92;11.45;;;3.30;99.90;;;;;;5092037;28;20044;-83
2023/01/29 02:31:32;;;;;;;23.95;12.13;;;3.30;99.90;;;;;;5091553;28;20051;-82
2023/01/29 02:34:05;;;;;;;21.98;12.10;;;3.40;99.90;;;;;;5107959;28;20094;-82
2023/01/29 02:36:40;;;;;;;20.52;11.38;;;3.40;99.90;;;;;;5091765;28;20044;-83
2023/01/29 02:39:32;;;;;;;19.35;11.07;;;3.30;99.90;;;;;;5091374;28;20037;-83
2023/01/29 02:42:20;;;;;;;20.85;11.43;;;3.30;99.90;;;;;;5091258;28;20036;-82
2023/01/29 02:44:55;;;;;;;23.25;12.15;;;3.30;99.90;;;;;;5108004;28;20040;-83
2023/01/29 02:47:32;;;;;;;23.73;11.77;;;3.30;99.90;;;;;;5091068;28;20500;-83
2023/01/29 02:50:29;;;;;;;20.38;12.07;;;3.30;99.90;;;;;;5091475;28;20407;-83
2023/01/29 02:53:05;;;;;;;26.02;12.98;;;3.30;99.90;;;;;;5091221;28;20487;-83
2023/01/29 02:55:47;;;;;;;22.23;12.27;;;3.30;99.90;;;;;;5102360;28;20048;-83
2023/01/29 02:58:29;;;;;;;22.45;12.85;;;3.30;99.90;;;;;;5111123;28;20528;-83
2023/01/29 03:01:07;;;;;;;23.42;12.82;;;3.30;99.90;;;;;;5111623;28;20039;-83
2023/01/29 03:03:41;;;;;;;24.13;13.93;;;3.30;99.90;;;;;;5111416;28;20075;-83
2023/01/29 03:06:29;;;;;;;25.45;14.02;;;3.30;99.90;;;;;;5110752;28;20028;-82
2023/01/29 03:08:59;;;;;;;26.75;15.00;;;3.30;99.90;;;;;;5127960;28;20096;-83
2023/01/29 03:11:38;;;;;;;27.27;15.10;;;3.30;99.90;;;;;;5110575;28;20040;-82
2023/01/29 03:14:12;;;;;;;26.45;14.52;;;3.30;99.90;;;;;;5127690;28;20851;-82
2023/01/29 03:16:48;;;;;;;26.95;15.00;;;3.30;99.90;;;;;;5127804;28;20484;-82
2023/01/29 03:19:49;;;;;;;28.33;15.65;;;3.30;99.90;;;;;;5127797;28;20040;-82
2023/01/29 03:22:19;;;;;;;28.50;16.15;;;3.30;99.90;;;;;;5127402;28;20498;-83
2023/01/29 03:33:25;;;;;;;25.45;14.98;;;3.30;99.90;;;;;;5144318;28;20048;-83
2023/01/29 03:36:01;;;;;;;30.45;16.05;;;3.30;99.90;;;;;;5127775;28;20066;-83
2023/01/29 03:38:30;;;;;;;;;;;3.30;99.90;;;;;;5127911;28;20048;-83
2023/01/29 03:41:05;;;;;;;25.15;14.10;;;3.30;99.90;;;;;;5127503;28;20014;-82
2023/01/29 03:43:49;;;;;;;24.27;14.05;;;3.30;99.90;;;;;;5127611;28;20051;-83
2023/01/29 03:46:22;;;;;;;23.75;14.60;;;3.20;99.90;;;;;;5126992;28;20105;-83
2023/01/29 03:49:00;;;;;;;26.63;14.07;;;3.50;99.90;;;;;;5127381;28;20040;-83
2023/01/29 03:51:37;;;;;;;27.20;14.93;;;3.20;99.90;;;;;;5127091;28;20044;-83
2023/01/29 03:54:18;;;;;;;22.48;13.93;;;3.30;99.90;;;;;;5127129;28;20040;-83
2023/01/29 03:56:57;;;;;;;24.08;13.75;;;3.30;99.90;;;;;;5127042;28;20099;-83
2023/01/29 03:59:32;;;;;;;25.88;14.43;;;3.40;99.90;;;;;;5126793;28;20032;-83
2023/01/29 04:02:04;;;;;;;21.60;13.57;;;3.30;99.90;;;;;;5127109;28;20380;-82
2023/01/29 04:04:33;;;;;;;27.40;14.93;;;3.30;99.90;;;;;;5126827;28;20711;-83
2023/01/29 04:07:08;;;;;;;26.17;13.68;;;3.30;99.90;;;;;;5109603;28;20538;-83
2023/01/29 04:09:48;;;;;;;28.15;14.38;;;3.50;99.90;;;;;;5126451;28;20112;-83
2023/01/29 04:12:20;;;;;;;25.20;13.55;;;3.30;99.90;;;;;;5126533;28;20040;-82
2023/01/29 04:14:49;;;;;;;24.77;13.40;;;3.30;99.90;;;;;;5126825;28;20075;-83
2023/01/29 04:17:20;;;;;;;25.65;14.13;;;3.30;99.90;;;;;;5108759;28;20127;-82
2023/01/29 04:19:47;;;;;;;25.10;14.15;;;3.40;99.90;;;;;;5126465;28;20044;-81
2023/01/29 04:22:25;;;;;;;25.52;14.35;;;3.40;99.90;;;;;;5109245;28;20397;-82
2023/01/29 04:24:51;;;;;;;19.98;13.07;;;3.40;99.90;;;;;;5126559;28;20082;-82
2023/01/29 04:27:55;;;;;;;26.38;14.27;;;3.50;99.90;;;;;;5109207;28;20784;-82
2023/01/29 04:31:00;;;;;;;22.40;13.40;;;3.40;99.90;;;;;;5126105;28;20047;-82
2023/01/29 04:33:41;;;;;;;24.40;13.90;;;3.50;99.90;;;;;;5108812;28;20048;-83
2023/01/29 04:36:29;;;;;;;24.50;13.75;;;3.40;99.90;;;;;;5126425;28;20047;-82
2023/01/29 04:39:25;;;;;;;27.27;13.38;;;3.40;99.90;;;;;;5109580;28;20042;-83
2023/01/29 04:41:57;;;;;;;26.15;14.55;;;3.50;99.90;;;;;;5126219;28;20036;-83
2023/01/29 04:44:43;;;;;;;26.35;13.90;;;3.50;99.90;;;;;;5109476;28;20047;-82
2023/01/29 04:47:32;;;;;;;25.58;14.45;;;3.50;99.90;;;;;;5126349;28;20488;-83
2023/01/29 04:50:25;;;;;;;26.52;14.77;;;3.50;99.90;;;;;;5126680;28;20079;-82
2023/01/29 04:53:04;;;;;;;25.55;14.18;;;3.50;99.90;;;;;;5106278;28;20047;-83
2023/01/29 04:55:42;;;;;;;26.35;14.02;;;3.50;99.90;;;;;;5105606;28;20083;-83
2023/01/29 04:58:12;;;;;;;28.70;15.57;;;3.60;99.90;;;;;;5088949;28;20083;-83
2023/01/29 05:00:44;;;;;;;27.98;15.20;;;3.60;99.90;;;;;;5105930;28;20106;-83
2023/01/29 05:03:14;;;;;;;29.90;15.30;;;3.60;99.90;;;;;;5122731;28;20037;-83
2023/01/29 05:05:44;;;;;;;29.88;16.05;;;3.60;99.90;;;;;;5105493;28;20542;-83
2023/01/29 05:08:15;;;;;;;27.48;15.52;;;3.60;99.90;;;;;;5089373;28;20458;-83
2023/01/29 05:10:44;;;;;;;27.00;15.82;;;3.60;99.90;;;;;;5122340;28;20083;-83
2023/01/29 05:13:13;;;;;;;28.85;16.45;;;3.50;99.90;;;;;;5105641;28;20040;-83
2023/01/29 05:15:54;;;;;;;30.92;16.52;;;3.50;99.90;;;;;;5105224;28;20044;-83
2023/01/29 05:18:21;;;;;;;31.77;16.23;;;3.50;99.90;;;;;;5105454;28;20110;-83
2023/01/29 05:20:48;;;;;;;32.78;16.48;;;3.50;99.90;;;;;;5105445;28;20041;-83
2023/01/29 05:23:21;;;;;;;30.58;16.40;;;3.40;99.90;;;;;;5088554;28;20400;-83
2023/01/29 05:25:49;;;;;;;34.97;17.02;;;3.40;99.90;;;;;;5125249;28;20040;-83
2023/01/29 05:28:16;;;;;;;33.72;17.30;;;3.30;99.90;;;;;;5127393;28;20047;-83
2023/01/29 05:30:48;;;;;;;29.20;16.52;;;3.40;99.90;;;;;;5112869;28;20059;-83
2023/01/29 05:33:20;;;;;;;34.35;17.00;;;3.30;99.90;;;;;;5129800;28;20040;-83
2023/01/29 05:35:48;;;;;;;34.72;18.00;;;3.30;99.90;;;;;;5129511;28;20138;-83
2023/01/29 05:38:16;;;;;;;32.83;18.73;;;3.30;99.90;;;;;;5112877;28;20036;-83
2023/01/29 05:40:43;;;;;;;32.17;18.13;;;3.30;99.90;;;;;;5129519;28;20128;-83
2023/01/29 05:43:21;;;;;;;34.70;18.23;;;3.20;99.90;;;;;;5112626;28;20039;-83
2023/01/29 05:45:53;;;;;;;31.52;16.48;;;3.30;99.90;;;;;;5129569;28;20069;-83
2023/01/29 05:48:20;;;;;;;36.92;16.25;;;3.30;99.90;;;;;;5129753;28;20038;-83
2023/01/29 05:50:47;;;;;;;32.63;16.23;;;3.30;99.90;;;;;;5129409;28;20396;-83
2023/01/29 05:53:14;;;;;;;32.38;17.02;;;3.20;99.90;;;;;;5129456;28;20039;-83
2023/01/29 05:55:45;;;;;;;34.30;15.55;;;3.20;99.90;;;;;;5112570;28;20028;-83
2023/01/29 05:58:13;;;;;;;29.17;15.55;;;3.60;99.90;;;;;;5129334;28;20084;-83
2023/01/29 06:00:40;;;;;;;31.67;15.63;;;3.20;99.90;;;;;;5129028;28;20459;-83
2023/01/29 06:03:07;;;;;;;33.40;16.17;;;3.20;99.90;;;;;;5129008;28;20115;-83
2023/01/29 06:05:37;;;;;;;31.77;16.77;;;3.20;99.90;;;;;;5112100;28;20532;-83
2023/01/29 06:08:04;;;;;;;31.95;15.95;;;3.20;99.90;;;;;;5112222;28;20098;-83
2023/01/29 06:10:31;;;;;;;38.90;16.20;;;3.20;99.90;;;;;;5111998;28;20097;-83
2023/01/29 06:12:58;;;;;;;28.05;15.07;;;3.20;99.90;;;;;;5112059;28;20491;-83
2023/01/29 06:15:25;;;;;;;30.65;16.30;;;3.20;99.90;;;;;;5111961;28;20044;-83
2023/01/29 06:17:56;;;;;;;32.78;15.73;;;3.30;99.90;;;;;;5111946;28;20048;-83
2023/01/29 06:20:23;;;;;;;29.33;15.43;;;3.70;99.90;;;;;;5128918;28;20035;-83
2023/01/29 06:22:50;;;;;;;30.35;14.88;;;3.20;99.90;;;;;;5128579;28;20565;-83
2023/01/29 06:25:16;;;;;;;27.55;15.05;;;3.20;99.90;;;;;;5111973;28;20036;-83
2023/01/29 06:27:43;;;;;;;32.80;14.48;;;3.20;99.90;;;;;;5111737;28;20043;-83
2023/01/29 06:30:10;;;;;;;27.08;15.25;;;3.20;99.90;;;;;;5111985;28;20134;-83
2023/01/29 06:32:37;;;;;;;25.13;14.30;;;3.20;99.90;;;;;;5111756;28;20526;-83
2023/01/29 06:35:04;;;;;;;29.90;14.35;;;3.30;99.90;;;;;;5111809;28;20047;-83
2023/01/29 06:37:31;;;;;;;27.40;15.23;;;3.30;99.90;;;;;;5111777;28;20044;-83
2023/01/29 06:39:58;;;;;;;31.58;15.65;;;3.30;99.90;;;;;;5127813;28;20043;-83
2023/01/29 06:42:26;;;;;;;28.38;15.80;;;3.30;99.90;;;;;;5111992;28;20040;-83
2023/01/29 06:44:54;;;;;;;26.75;14.65;;;3.30;99.90;;;;;;5111619;28;20097;-83
2023/01/29 06:47:22;;;;;;;31.98;15.55;;;3.30;99.90;;;;;;5126708;28;20119;-83
2023/01/29 06:49:50;;;;;;;30.35;16.27;;;3.30;99.90;;;;;;5105456;28;20067;-83
2023/01/29 06:52:17;;;;;;;31.73;15.45;;;3.40;99.90;;;;;;5083446;28;20050;-83
2023/01/29 06:54:43;;;;;;;21.63;9.40;;;3.30;99.90;;;;;;5074898;28;20044;-83
2023/01/29 06:57:10;;;;;;;23.17;9.80;;;3.80;99.90;;;;;;5107513;28;20040;-83
2023/01/29 06:59:37;;;;;;;18.67;9.30;;;3.30;99.90;;;;;;5074574;28;20048;-83
2023/01/29 07:02:03;;;;;;;26.98;10.30;;;3.40;99.90;;;;;;5091297;28;20079;-82
2023/01/29 07:04:30;;;;;;;20.67;10.43;;;3.40;99.90;;;;;;5091213;28;20037;-83
2023/01/29 07:06:58;;;;;;;23.30;9.50;;;3.40;99.90;;;;;;5105790;28;20044;-83
2023/01/29 07:09:25;;;;;;;20.58;9.25;;;3.40;99.90;;;;;;5128134;28;20117;-83
2023/01/29 07:11:52;;;;;;;21.15;9.75;;;3.40;99.90;;;;;;5110932;28;20043;-83
2023/01/29 07:14:18;;;;;;;24.10;10.15;;;3.40;99.90;;;;;;5101636;28;20032;-83
2023/01/29 07:16:45;;;;;;;19.23;9.23;;;3.50;99.90;;;;;;5095999;28;20048;-83
2023/01/29 07:19:12;;;;;;;20.90;9.68;;;3.40;99.90;;;;;;5074151;28;20037;-83
2023/01/29 07:21:38;;;;;;;21.02;10.02;;;3.40;99.90;;;;;;5073968;28;20048;-87
2023/01/29 07:24:05;;;;;;;19.35;10.13;;;3.40;99.90;;;;;;5102379;28;20036;-85
2023/01/29 07:26:32;;;;;;;24.70;10.23;;;3.50;99.90;;;;;;5085051;28;20041;-84
2023/01/29 07:28:59;;;;;;;22.65;10.30;;;3.40;99.90;;;;;;5084823;28;20045;-85
2023/01/29 07:31:25;;;;;;;21.05;9.57;;;3.50;99.90;;;;;;5090154;28;20051;-85
2023/01/29 07:33:52;;;;;;;18.92;10.40;;;3.50;99.90;;;;;;5112026;28;20039;-84
2023/01/29 07:36:19;;;;;;;21.80;10.65;;;3.50;99.90;;;;;;5093295;28;20372;-84
2023/01/29 07:38:49;;;;;;;16.88;8.13;;;3.50;99.90;;;;;;5073533;28;20132;-84
2023/01/29 07:41:16;;;;;;;19.70;9.45;;;3.50;99.90;;;;;;5091030;28;20040;-85
2023/01/29 07:43:42;;;;;;;23.10;9.68;;;3.50;99.90;;;;;;5107094;28;20118;-84
2023/01/29 07:46:09;;;;;;;22.95;9.57;;;3.50;99.90;;;;;;5090870;28;20037;-85
2023/01/29 07:48:36;;;;;;;24.13;10.00;;;3.70;99.90;;;;;;5090857;28;20040;-85
2023/01/29 07:51:03;;;;;;;17.70;8.85;;;3.50;99.90;;;;;;5073720;28;20059;-84
2023/01/29 07:53:30;;;;;;;22.60;10.13;;;3.50;99.90;;;;;;5093862;28;20605;-85
2023/01/29 07:55:56;;;;;;;19.95;8.60;;;3.60;99.90;;;;;;5093123;28;20123;-86
2023/01/29 07:58:23;;;;;;;18.88;10.40;;;3.60;99.90;;;;;;5084307;28;20044;-87
2023/01/29 08:00:50;;;;;;;19.17;9.65;;;3.50;99.90;;;;;;5109956;28;20036;-87
2023/01/29 08:03:19;;;;;;;22.52;9.52;;;3.60;99.90;;;;;;5091389;28;20043;-85
2023/01/29 08:05:46;;;;;;;20.85;9.50;;;3.60;99.90;;;;;;5107895;28;20504;-85
2023/01/29 08:08:13;;;;;;;19.05;9.20;;;3.60;99.90;;;;;;5092972;28;20501;-85
2023/01/29 08:10:40;;;;;;;16.65;8.35;;;3.60;99.90;;;;;;5120805;28;20051;-85
2023/01/29 08:13:07;;;;;;;21.65;9.85;;;3.60;99.90;;;;;;5109022;28;20040;-84
2023/01/29 08:15:35;;;;;;;19.00;9.50;;;3.60;99.90;;;;;;5089843;28;20047;-84
2023/01/29 08:18:02;;;;;;;25.55;9.60;;;3.70;99.90;;;;;;5075694;28;20052;-85
2023/01/29 08:20:28;;;;;;;20.35;9.13;;;3.70;99.90;;;;;;5106947;28;20032;-85
2023/01/29 08:23:00;;;;;;;24.38;10.20;;;3.80;99.90;;;;;;5099788;28;20040;-85
2023/01/29 08:25:27;;;;;;;17.52;9.52;;;3.70;99.90;;;;;;5103108;28;20036;-85
2023/01/29 08:27:56;;;;;;;21.42;8.95;;;3.70;99.90;;;;;;5099498;28;20071;-85
2023/01/29 08:30:24;;;;;;;20.80;9.45;;;3.70;99.90;;;;;;5106104;28;20047;-85
2023/01/29 08:32:51;;;;;;;18.23;9.77;;;3.70;99.90;;;;;;5097545;28;20420;-85
2023/01/29 08:35:18;;;;;;;19.23;9.95;;;3.80;99.90;;;;;;5092586;28;20040;-85
2023/01/29 08:37:53;;;;;;;26.00;9.45;;;3.70;99.90;;;;;;5117190;28;20048;-84
2023/01/29 08:40:20;;;;;;;20.85;9.43;;;4.20;99.90;;;;;;5122293;28;20043;-85
2023/01/29 08:42:46;;;;;;;18.48;9.95;;;3.80;99.90;;;;;;5116384;28;20146;-84
2023/01/29 08:45:13;;;;;;;18.75;10.07;;;3.80;99.90;;;;;;5119706;28;20115;-86
2023/01/29 08:47:45;;;;;;;26.52;9.98;;;3.80;99.90;;;;;;5107455;28;20123;-84
2023/01/29 08:50:11;;;;;;;19.27;9.55;;;3.80;99.90;;;;;;5098268;28;20391;-85
2023/01/29 08:52:38;;;;;;;18.13;9.63;;;3.80;99.90;;;;;;5108761;28;20123;-85
2023/01/29 08:55:05;;;;;;;18.38;9.95;;;3.80;99.90;;;;;;5108201;28;20104;-86
2023/01/29 08:57:32;;;;;;;17.92;8.95;;;3.80;99.90;;;;;;5092069;28;20078;-85
2023/01/29 08:59:58;;;;;;;22.92;9.63;;;3.80;99.90;;;;;;5092245;28;20067;-85
2023/01/29 09:02:25;;;;;;;22.65;10.63;;;3.80;99.90;;;;;;5110775;28;20042;-84
2023/01/29 09:04:52;;;;;;;16.25;8.85;;;3.80;99.90;;;;;;5109343;28;20071;-85
2023/01/29 09:07:20;;;;;;;19.38;10.27;;;3.80;99.90;;;;;;5112091;28;20087;-85
2023/01/29 09:09:47;;;;;;;19.92;9.32;;;3.80;99.90;;;;;;5095483;28;20052;-85
2023/01/29 09:12:14;;;;;;;21.40;10.18;;;4.20;99.90;;;;;;5078592;28;20036;-86
2023/01/29 09:14:40;;;;;;;20.70;9.95;;;3.80;99.90;;;;;;5112431;28;20055;-86
2023/01/29 09:17:07;;;;;;;22.10;9.15;;;3.80;99.90;;;;;;5099982;28;20047;-85
2023/01/29 09:19:34;;;;;;;23.02;10.65;;;3.90;99.90;;;;;;5086665;28;20036;-85
2023/01/29 09:22:00;;;;;;;24.50;10.00;;;3.90;99.90;;;;;;5106759;28;20047;-84
2023/01/29 09:24:27;;;;;;;24.35;11.50;;;3.90;99.90;;;;;;5117418;28;20039;-83
2023/01/29 09:26:54;;;;;;;23.00;10.20;;;3.90;99.90;;;;;;5098449;28;20040;-84
2023/01/29 09:29:20;;;;;;;21.63;10.45;;;4.00;99.90;;;;;;5115429;28;20043;-86
2023/01/29 09:31:47;;;;;;;17.23;8.80;;;3.90;99.90;;;;;;5096683;28;20035;-84
2023/01/29 09:34:14;;;;;;;20.65;10.38;;;4.10;99.90;;;;;;5077700;28;20036;-83
2023/01/29 09:36:40;;;;;;;23.10;9.40;;;4.00;99.90;;;;;;5101908;28;20516;-83
2023/01/29 09:39:07;;;;;;;22.30;10.48;;;4.10;99.90;;;;;;5114486;28;20040;-83
2023/01/29 09:42:25;;;;;;;21.85;10.10;;;4.00;99.90;;;;;;5131792;28;20040;-83
2023/01/29 09:44:55;;;;;;;23.80;10.20;;;4.00;99.90;;;;;;5093772;28;20043;-82
2023/01/29 09:47:25;;;;;;;19.50;10.35;;;4.00;99.90;;;;;;5124213;28;20431;-83
2023/01/29 09:49:57;;;;;;;26.77;11.20;;;4.00;99.90;;;;;;5114403;28;20036;-82
2023/01/29 09:52:31;;;;;;;21.83;10.23;;;4.10;99.90;;;;;;5131589;28;20072;-83
2023/01/29 09:55:23;;;;;;;24.40;11.13;;;4.20;99.90;;;;;;5114471;28;20051;-83
2023/01/29 09:57:52;;;;;;;25.10;10.80;;;4.10;99.90;;;;;;5131535;28;20433;-83
2023/01/29 10:00:43;;;;;;;22.15;10.73;;;4.10;99.90;;;;;;5131592;28;20465;-82
2023/01/29 10:03:34;;;;;;;22.60;10.65;;;4.10;99.90;;;;;;5131247;28;20055;-83
2023/01/29 10:06:20;;;;;;;25.60;10.20;;;4.10;99.90;;;;;;5131533;28;20514;-83
2023/01/29 10:09:23;;;;;;;25.58;10.38;;;4.10;99.90;;;;;;5130871;28;20137;-83
2023/01/29 10:12:01;;;;;;;25.77;11.57;;;4.10;99.90;;;;;;5131516;28;20040;-83
2023/01/29 10:14:45;;;;;;;21.65;10.27;;;4.20;99.90;;;;;;5128652;28;20503;-83
2023/01/29 10:17:14;;;;;;;22.60;10.82;;;4.20;99.90;;;;;;5128192;28;20069;-83
2023/01/29 10:19:57;;;;;;;24.30;10.85;;;4.20;99.90;;;;;;5128208;28;20048;-83
2023/01/29 10:22:30;;;;;;;22.70;10.90;;;4.20;99.90;;;;;;5128126;28;20032;-83
2023/01/29 10:25:01;;;;;;;24.92;11.18;;;4.20;99.90;;;;;;5128050;28;20043;-83
2023/01/29 10:27:39;;;;;;;23.02;10.60;;;4.20;99.90;;;;;;5128480;28;20044;-83
2023/01/29 10:30:18;;;;;;;20.38;10.25;;;4.20;99.90;;;;;;5127801;28;20124;-83
2023/01/29 10:32:47;;;;;;;25.25;10.43;;;4.30;99.90;;;;;;5128490;28;20040;-83
2023/01/29 10:35:27;;;;;;;22.25;11.05;;;4.30;99.90;;;;;;5111622;28;20052;-83
2023/01/29 10:38:01;;;;;;;24.52;10.63;;;4.30;99.90;;;;;;5095322;28;20074;-83
2023/01/29 10:40:45;;;;;;;24.52;10.30;;;4.30;99.90;;;;;;5128643;28;20040;-83
2023/01/29 10:43:36;;;;;;;25.08;10.27;;;4.30;99.90;;;;;;5127768;28;20039;-83
2023/01/29 10:46:15;;;;;;;20.67;9.98;;;4.40;99.90;;;;;;5127728;28;20040;-83
2023/01/29 10:49:06;;;;;;;23.45;10.13;;;4.40;99.90;;;;;;5111007;28;20044;-83
2023/01/29 10:52:07;;;;;;;24.63;9.50;;;4.40;99.90;;;;;;5127673;28;20040;-83
2023/01/29 10:54:58;;;;;;;21.73;9.52;;;4.40;99.90;;;;;;5111212;28;20107;-83
2023/01/29 10:57:39;;;;;;;23.60;10.32;;;4.30;99.90;;;;;;5128021;28;20040;-83
2023/01/29 11:00:27;;;;;;;26.05;11.38;;;4.40;99.90;;;;;;5127701;28;20036;-84
2023/01/29 11:02:53;;;;;;;28.23;10.73;;;4.40;99.90;;;;;;5127632;28;20488;-83
2023/01/29 11:05:28;;;;;;;23.25;10.65;;;4.40;99.90;;;;;;5093961;28;20051;-83
2023/01/29 11:08:18;;;;;;;24.13;11.63;;;4.30;99.90;;;;;;5127635;28;20424;-83
2023/01/29 11:10:54;;;;;;;25.38;11.32;;;4.30;99.90;;;;;;5127675;28;20097;-83
2023/01/29 11:13:26;;;;;;;26.05;12.20;;;4.30;99.90;;;;;;5127375;28;20043;-82
2023/01/29 11:15:53;;;;;;;23.40;10.55;;;4.30;99.90;;;;;;5127414;28;20091;-83
2023/01/29 11:18:19;;;;;;;25.15;11.35;;;4.30;99.90;;;;;;5110064;28;20040;-83
2023/01/29 11:21:00;;;;;;;25.10;11.20;;;4.40;99.90;;;;;;5110582;28;20071;-83
2023/01/29 11:23:30;;;;;;;22.23;10.50;;;4.30;99.90;;;;;;5110052;28;20036;-83
2023/01/29 11:25:59;;;;;;;24.00;10.40;;;4.30;99.90;;;;;;5126887;28;20412;-83
2023/01/29 11:28:55;;;;;;;21.50;10.93;;;4.30;99.90;;;;;;5126784;28;20043;-82
2023/01/29 11:31:25;;;;;;;28.85;11.60;;;4.30;99.90;;;;;;5109683;28;20055;-83
2023/01/29 11:34:13;;;;;;;26.70;12.02;;;4.30;99.90;;;;;;5127571;28;20076;-83
2023/01/29 11:36:40;;;;;;;27.20;10.88;;;4.20;99.90;;;;;;5109313;28;20086;-83
2023/01/29 11:39:21;;;;;;;26.80;12.18;;;4.20;99.90;;;;;;5109702;28;20064;-83
2023/01/29 11:41:59;;;;;;;26.08;11.07;;;4.10;99.90;;;;;;5093057;28;20082;-83
2023/01/29 11:44:27;;;;;;;21.50;10.98;;;4.20;99.90;;;;;;5106975;28;20028;-84
2023/01/29 11:46:56;;;;;;;25.75;11.90;;;4.20;99.90;;;;;;5110153;28;20133;-84
2023/01/29 11:49:32;;;;;;;24.45;11.85;;;4.40;99.90;;;;;;5106618;28;20040;-83
2023/01/29 11:52:02;;;;;;;30.67;12.10;;;4.20;99.90;;;;;;5110217;28;20071;-83
2023/01/29 11:54:48;;;;;;;28.83;12.20;;;4.30;99.90;;;;;;5109637;28;20381;-83
2023/01/29 11:57:37;;;;;;;23.90;11.40;;;4.30;99.90;;;;;;5109785;28;20052;-84
2023/01/29 12:00:16;;;;;;;26.45;10.63;;;4.20;99.90;;;;;;5126629;28;20119;-83
2023/01/29 12:02:45;;;;;;;30.42;11.80;;;4.20;99.90;;;;;;5109572;28;20449;-84
2023/01/29 12:05:21;;;;;;;26.30;10.88;;;4.20;99.90;;;;;;5126215;28;20036;-84
2023/01/29 12:07:58;;;;;;;23.77;11.23;;;4.20;99.90;;;;;;5126248;28;20485;-83
2023/01/29 12:10:32;;;;;;;24.63;11.35;;;4.20;99.90;;;;;;5126555;28;20052;-83
2023/01/29 12:13:08;;;;;;;27.00;10.27;;;4.20;99.90;;;;;;5126906;28;20051;-84
2023/01/29 12:15:37;;;;;;;30.10;11.85;;;4.50;99.90;;;;;;5126352;28;20044;-83
2023/01/29 12:18:50;;;;;;;21.65;10.98;;;4.20;99.90;;;;;;5109329;28;20411;-83
2023/01/29 12:21:42;;;;;;;28.08;11.48;;;4.20;99.90;;;;;;5108247;28;20036;-83
2023/01/29 12:24:29;;;;;;;24.45;11.85;;;4.20;99.90;;;;;;5053447;28;20452;-83
2023/01/29 12:27:18;;;;;;;23.17;11.10;;;4.20;99.90;;;;;;5105337;28;20067;-83
2023/01/29 12:30:24;;;;;;;25.10;11.73;;;4.30;99.90;;;;;;5126019;28;20094;-83
2023/01/29 12:33:01;;;;;;;20.83;11.17;;;4.30;99.90;;;;;;5121921;28;20076;-83
2023/01/29 12:35:37;;;;;;;24.73;12.15;;;4.30;99.90;;;;;;5109140;28;20289;-84
2023/01/29 12:38:23;;;;;;;30.05;11.93;;;4.20;99.90;;;;;;5108779;28;20036;-83
2023/01/29 12:40:58;;;;;;;24.42;12.35;;;4.20;99.90;;;;;;5100336;28;20456;-83
2023/01/29 12:43:41;;;;;;;26.50;11.93;;;4.20;99.90;;;;;;5093511;28;20043;-83
2023/01/29 12:46:17;;;;;;;26.38;12.02;;;4.20;99.90;;;;;;5108233;28;20112;-83
2023/01/29 12:48:45;;;;;;;27.60;12.82;;;4.20;99.90;;;;;;5088962;28;20550;-82
2023/01/29 12:51:23;;;;;;;25.75;11.73;;;4.20;99.90;;;;;;5088888;28;20135;-82
2023/01/29 12:54:02;;;;;;;24.60;10.93;;;4.30;99.90;;;;;;5092096;28;20039;-82
2023/01/29 12:56:33;;;;;;;26.55;11.38;;;4.30;99.90;;;;;;5125360;28;20044;-83
2023/01/29 12:59:08;;;;;;;25.80;10.90;;;4.30;99.90;;;;;;5125851;28;20094;-81
2023/01/29 13:01:45;;;;;;;25.50;11.57;;;4.30;99.90;;;;;;5125304;28;20074;-83
2023/01/29 13:04:34;;;;;;;26.40;11.77;;;4.30;99.90;;;;;;5125770;28;20403;-83
2023/01/29 13:07:14;;;;;;;25.38;11.50;;;4.40;99.90;;;;;;5125568;28;20130;-81
2023/01/29 13:09:47;;;;;;;25.70;11.07;;;4.40;99.90;;;;;;5122484;28;20044;-82
2023/01/29 13:12:17;;;;;;;24.13;10.93;;;4.40;99.90;;;;;;5118701;28;20044;-82
2023/01/29 13:15:10;;;;;;;22.67;10.70;;;4.50;99.90;;;;;;5101817;28;20377;-83
2023/01/29 13:17:46;;;;;;;19.42;9.65;;;4.40;99.90;;;;;;5116940;28;20040;-83
2023/01/29 13:20:29;;;;;;;20.27;9.48;;;4.50;99.90;;;;;;5123251;28;20119;-82
2023/01/29 13:23:01;;;;;;;19.42;9.43;;;4.50;99.90;;;;;;5117722;28;20028;-82
2023/01/29 13:25:28;;;;;;;25.63;9.88;;;4.50;99.90;;;;;;5119712;28;20032;-83
2023/01/29 13:27:55;;;;;;;15.63;8.55;;;4.60;99.90;;;;;;5093852;28;20094;-83
2023/01/29 13:30:31;;;;;;;19.10;9.85;;;4.60;99.90;;;;;;5105080;28;20131;-82
2023/01/29 13:33:09;;;;;;;16.88;8.23;;;4.70;99.90;;;;;;5088398;28;20519;-83